createdAt,value
2022-08-27T00:00:02.869Z,0
2022-08-27T00:05:02.454Z,0
2022-08-27T00:10:03.154Z,0
2022-08-27T00:15:02.954Z,0
2022-08-27T00:20:02.769Z,0
2022-08-27T00:25:03.227Z,0
2022-08-27T00:30:06.206Z,0
2022-08-27T00:35:02.897Z,0
2022-08-27T00:40:02.762Z,0
2022-08-27T00:45:03.168Z,0
2022-08-27T00:50:02.774Z,0
2022-08-27T00:55:03.905Z,0
2022-08-27T01:00:03.378Z,0
2022-08-27T01:05:03.385Z,0
2022-08-27T01:10:02.413Z,0
2022-08-27T01:15:02.931Z,0
2022-08-27T01:20:02.560Z,0
2022-08-27T01:25:03.197Z,0
2022-08-27T01:30:02.916Z,0
2022-08-27T01:35:02.519Z,0
2022-08-27T01:40:02.586Z,0
2022-08-27T01:45:06.081Z,0
2022-08-27T01:50:03.022Z,0
2022-08-27T01:55:03.883Z,0
2022-08-27T02:00:02.455Z,0
2022-08-27T02:05:03.206Z,0
2022-08-27T02:10:02.760Z,0
2022-08-27T02:15:03.447Z,0
2022-08-27T02:20:02.980Z,0
2022-08-27T02:25:02.663Z,0
2022-08-27T02:30:03.076Z,0
2022-08-27T02:35:02.777Z,0
2022-08-27T02:40:02.522Z,0
2022-08-27T02:45:03.280Z,0
2022-08-27T02:50:02.458Z,0
2022-08-27T02:55:05.888Z,0
2022-08-27T03:00:02.790Z,0
2022-08-27T03:05:02.412Z,0
2022-08-27T03:10:03.108Z,0
2022-08-27T03:15:02.623Z,0
2022-08-27T03:20:02.868Z,0
2022-08-27T03:25:02.363Z,0
2022-08-27T03:30:03.998Z,0
2022-08-27T03:35:02.697Z,0.11
2022-08-27T03:40:02.533Z,0.57
2022-08-27T03:45:03.170Z,1.58
2022-08-27T03:50:02.724Z,4.07
2022-08-27T03:55:03.346Z,7.58
2022-08-27T04:00:03.088Z,6.67
2022-08-27T04:05:03.127Z,11.67
2022-08-27T04:10:02.798Z,20
2022-08-27T04:15:02.452Z,35
2022-08-27T04:20:35.264Z,48.33
2022-08-27T04:25:05.763Z,73.33
2022-08-27T04:30:02.494Z,91.67
2022-08-27T04:35:03.018Z,110
2022-08-27T04:40:02.798Z,123.33
2022-08-27T04:45:03.382Z,175
2022-08-27T04:50:05.990Z,186.67
2022-08-27T04:55:03.927Z,223.33
2022-08-27T05:00:02.521Z,243.33
2022-08-27T05:05:03.234Z,281.67
2022-08-27T05:10:02.985Z,318.33
2022-08-27T05:15:02.399Z,323.33
2022-08-27T05:20:03.058Z,413.33
2022-08-27T05:25:03.260Z,398.33
2022-08-27T05:30:02.835Z,476.67
2022-08-27T05:35:02.433Z,551.67
2022-08-27T05:40:03.202Z,483.33
2022-08-27T05:45:02.857Z,373.33
2022-08-27T05:50:02.651Z,438.33
2022-08-27T05:55:04.541Z,446.67
2022-08-27T06:00:03.124Z,465
2022-08-27T06:05:03.365Z,616.67
2022-08-27T06:10:02.642Z,861.67
2022-08-27T06:15:03.489Z,948.33
2022-08-27T06:20:02.564Z,1073.33
2022-08-27T06:25:03.165Z,1280
2022-08-27T06:30:03.013Z,1465
2022-08-27T06:35:02.624Z,1918.33
2022-08-27T06:40:03.484Z,1638.33
2022-08-27T06:45:02.854Z,1628.33
2022-08-27T06:50:03.209Z,1385
2022-08-27T06:55:04.087Z,1280
2022-08-27T07:00:02.628Z,1563.33
2022-08-27T07:05:03.089Z,1678.33
2022-08-27T07:10:04.457Z,1565
2022-08-27T07:15:02.825Z,1386.67
2022-08-27T07:20:03.259Z,1460
2022-08-27T07:25:02.656Z,1065
2022-08-27T07:30:03.491Z,878.33
2022-08-27T07:35:02.944Z,815
2022-08-27T07:40:03.375Z,758.33
2022-08-27T07:45:02.822Z,718.33
2022-08-27T07:50:03.316Z,975
2022-08-27T07:55:04.057Z,1013.33
2022-08-27T08:00:03.348Z,1066.67
2022-08-27T08:05:03.264Z,1513.33
2022-08-27T08:10:02.482Z,1603.33
2022-08-27T08:15:03.198Z,1986.67
2022-08-27T08:20:30.998Z,1976.67
2022-08-27T08:25:02.750Z,2646.67
2022-08-27T08:30:02.427Z,2761.67
2022-08-27T08:35:03.037Z,2523.33
2022-08-27T08:40:02.901Z,2406.67
2022-08-27T08:45:02.456Z,2168.33
2022-08-27T08:50:03.064Z,2106.67
2022-08-27T08:55:04.094Z,2836.67
2022-08-27T09:00:03.371Z,5065
2022-08-27T09:05:02.805Z,5565
2022-08-27T09:10:03.392Z,5596.67
2022-08-27T09:15:05.403Z,4400
2022-08-27T09:20:02.569Z,3033.33
2022-08-27T09:25:03.367Z,3015
2022-08-27T09:30:03.245Z,3443.33
2022-08-27T09:35:02.922Z,3630
2022-08-27T09:40:03.295Z,5536.67
2022-08-27T09:45:02.568Z,5770
2022-08-27T09:50:07.328Z,5216.67
2022-08-27T09:55:06.141Z,4355
2022-08-27T10:00:02.682Z,4655
2022-08-27T10:05:03.435Z,4468.33
2022-08-27T10:10:02.752Z,4210
2022-08-27T10:15:03.281Z,4441.67
2022-08-27T10:20:02.985Z,4956.67
2022-08-27T10:25:02.601Z,5363.33
2022-08-27T10:30:03.512Z,5596.67
2022-08-27T10:35:03.283Z,5226.67
2022-08-27T10:40:02.738Z,5083.33
2022-08-27T10:45:03.228Z,5168.33
2022-08-27T10:50:02.900Z,4986.67
2022-08-27T10:55:07.521Z,4330
2022-08-27T11:00:03.016Z,3533.33
2022-08-27T11:05:02.501Z,2280
2022-08-27T11:10:03.163Z,2030
2022-08-27T11:15:02.976Z,1973.33
2022-08-27T11:20:02.601Z,2008.33
2022-08-27T11:25:03.222Z,1578.33
2022-08-27T11:30:02.483Z,2140
2022-08-27T11:35:03.254Z,3098.33
2022-08-27T11:40:02.955Z,3553.33
2022-08-27T11:45:02.636Z,3315
2022-08-27T11:50:04.697Z,3940
2022-08-27T11:55:04.165Z,3975
2022-08-27T12:00:02.590Z,3033.33
2022-08-27T12:05:03.242Z,3345
2022-08-27T12:10:02.523Z,4336.67
2022-08-27T12:15:03.195Z,4930
2022-08-27T12:20:03.046Z,5828.33
2022-08-27T12:25:02.674Z,6270
2022-08-27T12:30:03.338Z,4638.33
2022-08-27T12:35:02.834Z,5236.67
2022-08-27T12:40:02.810Z,5103.33
2022-08-27T12:45:02.613Z,4300
2022-08-27T12:50:03.342Z,3686.67
2022-08-27T12:55:03.711Z,3438.33
2022-08-27T13:00:02.449Z,3128.33
2022-08-27T13:05:03.115Z,3410
2022-08-27T13:10:02.613Z,3423.33
2022-08-27T13:15:02.488Z,3113.33
2022-08-27T13:20:03.391Z,2608.33
2022-08-27T13:25:02.700Z,2400
2022-08-27T13:30:02.393Z,1730
2022-08-27T13:35:03.132Z,1375
2022-08-27T13:40:03.341Z,1145
2022-08-27T13:45:02.571Z,1610
2022-08-27T13:50:03.239Z,1613.33
2022-08-27T13:55:03.885Z,1283.33
2022-08-27T14:00:03.523Z,1090
2022-08-27T14:05:03.164Z,1141.67
2022-08-27T14:10:02.871Z,1133.33
2022-08-27T14:15:03.513Z,1373.33
2022-08-27T14:20:04.645Z,1476.67
2022-08-27T14:25:02.466Z,1426.67
2022-08-27T14:30:03.388Z,1593.33
2022-08-27T14:35:02.990Z,1921.67
2022-08-27T14:40:03.040Z,2295
2022-08-27T14:45:03.162Z,2678.33
2022-08-27T14:50:02.696Z,3016.67
2022-08-27T14:55:10.936Z,3381.67
2022-08-27T15:00:03.074Z,3496.67
2022-08-27T15:05:14.144Z,2953.33
2022-08-27T15:10:02.808Z,2425
2022-08-27T15:15:02.883Z,2361.67
2022-08-27T15:20:02.581Z,2450
2022-08-27T15:25:03.468Z,2363.33
2022-08-27T15:30:02.767Z,2610
2022-08-27T15:35:02.549Z,2683.33
2022-08-27T15:40:03.290Z,2445
2022-08-27T15:45:02.702Z,2833.33
2022-08-27T15:50:02.652Z,3043.33
2022-08-27T15:55:04.692Z,3098.33
2022-08-27T16:00:02.661Z,3158.33
2022-08-27T16:05:03.223Z,2661.67
2022-08-27T16:10:02.888Z,2483.33
2022-08-27T16:15:02.585Z,1575
2022-08-27T16:20:03.295Z,768.33
2022-08-27T16:25:02.991Z,668.33
2022-08-27T16:30:02.707Z,533.33
2022-08-27T16:35:03.289Z,283.33
2022-08-27T16:40:03.143Z,136.67
2022-08-27T16:45:02.555Z,170
2022-08-27T16:50:03.034Z,201.67
2022-08-27T16:55:03.893Z,243.33
2022-08-27T17:00:03.296Z,305
2022-08-27T17:05:33.773Z,316.67
2022-08-27T17:10:06.221Z,280
2022-08-27T17:15:02.723Z,246.67
2022-08-27T17:20:02.383Z,223.33
2022-08-27T17:25:03.374Z,213.33
2022-08-27T17:30:03.050Z,196.67
2022-08-27T17:35:06.467Z,200
2022-08-27T17:40:03.595Z,173.33
2022-08-27T17:45:02.773Z,135
2022-08-27T17:50:03.463Z,121.67
2022-08-27T17:55:04.084Z,50
2022-08-27T18:05:03.142Z,35
2022-08-27T18:10:02.612Z,31.67
2022-08-27T18:15:02.640Z,15
2022-08-27T18:20:03.370Z,6.67
2022-08-27T18:25:02.743Z,9.06
2022-08-27T18:30:03.272Z,2.94
2022-08-27T18:35:03.053Z,1.81
2022-08-27T18:40:03.222Z,1.02
2022-08-27T18:45:06.347Z,0.45
2022-08-27T18:50:02.780Z,0.11
2022-08-27T18:55:03.587Z,0
2022-08-27T19:00:02.997Z,0
2022-08-27T19:05:02.552Z,0
2022-08-27T19:10:03.192Z,0
2022-08-27T19:20:02.636Z,0
2022-08-27T19:25:02.332Z,0
2022-08-27T19:30:03.147Z,0
2022-08-27T19:35:02.390Z,0
2022-08-27T19:40:03.293Z,0
2022-08-27T19:45:03.065Z,0
2022-08-27T19:50:02.544Z,0
2022-08-27T19:55:15.498Z,0
2022-08-27T20:00:04.111Z,0
2022-08-27T20:05:19.687Z,0
2022-08-27T20:10:08.856Z,0
2022-08-27T20:15:03.204Z,0
2022-08-27T20:20:02.384Z,0
2022-08-27T20:25:03.099Z,0
2022-08-27T20:30:02.466Z,0
2022-08-27T20:35:03.062Z,0
2022-08-27T20:40:02.977Z,0
2022-08-27T20:45:03.356Z,0
2022-08-27T20:50:03.764Z,0
2022-08-27T20:55:03.828Z,0
2022-08-27T21:00:03.126Z,0
2022-08-27T21:05:02.675Z,0
2022-08-27T21:10:03.338Z,0
2022-08-27T21:15:03.060Z,0
2022-08-27T21:20:02.738Z,0
2022-08-27T21:25:03.230Z,0
2022-08-27T21:30:02.795Z,0
2022-08-27T21:35:02.403Z,0
2022-08-27T21:40:03.229Z,0
2022-08-27T21:45:02.774Z,0
2022-08-27T21:50:02.434Z,0
2022-08-27T21:55:04.293Z,0
2022-08-27T22:00:02.662Z,0
2022-08-27T22:05:03.279Z,0
2022-08-27T22:10:02.967Z,0
2022-08-27T22:15:02.496Z,0
2022-08-27T22:20:06.777Z,0
2022-08-27T22:25:02.816Z,0
2022-08-27T22:30:03.330Z,0
2022-08-27T22:35:02.829Z,0
2022-08-27T22:40:03.852Z,0
2022-08-27T22:45:03.189Z,0
2022-08-27T22:50:02.844Z,0
2022-08-27T22:55:03.745Z,0
2022-08-27T23:00:03.133Z,0
2022-08-27T23:05:06.933Z,0
2022-08-27T23:10:03.425Z,0
2022-08-27T23:15:05.259Z,0
2022-08-27T23:20:03.284Z,0
2022-08-27T23:25:02.405Z,0
2022-08-27T23:30:03.079Z,0
2022-08-27T23:35:02.912Z,0
2022-08-27T23:40:02.775Z,0
2022-08-27T23:45:03.376Z,0
2022-08-27T23:50:02.487Z,0
2022-08-27T23:55:04.577Z,0
